• Join FlightAware (Why Join?)
  • Login
  • US Flag 
07:22AM EDT


 

Airport Tracker/Info


-or-


 

Live Flight TrackerFlight Track Log ✈ CSN6797 ✈ 04-May-2012 ✈ ZGNN / NNG - ZUCK / CKG

Flight Track Log - Related Links

Times and Time Zones

All times are in EDT time to prevent confusion due to time zone crossing. See the CSN6797 flight status page for this flight to view local times or setup timezone preferences in your user account.

Time Position Orientation Groundspeed Altitude Reporting Facility
EDT Latitude Longitude Course Direction KTS MPH feet Rate Location/Type
08:24PM 24.2529 107.8345 349° North  Level Estimated
08:25PM 24.3608 107.8121 349° North  Level Estimated
08:26PM 24.4686 107.7896 349° North  Level Estimated
08:27PM 24.5764 107.7671 349° North  Level Estimated
08:28PM 24.6842 107.7445 349° North  Level Estimated
08:29PM 24.7920 107.7219 349° North  Level Estimated
08:30PM 24.8998 107.6992 349° North  Level Estimated
08:31PM 25.0076 107.6765 349° North  Level Estimated
08:32PM 25.1154 107.6538 349° North  Level Estimated
08:33PM 25.2232 107.6310 349° North  Level Estimated
08:34PM 25.3310 107.6082 349° North  Level Estimated
08:35PM 25.4388 107.5854 349° North  Level Estimated
08:36PM 25.5466 107.5625 349° North  Level Estimated
08:37PM 25.6544 107.5395 349° North  Level Estimated
08:38PM 25.7621 107.5165 349° North  Level Estimated
08:39PM 25.8699 107.4935 349° North  Level Estimated
08:40PM 25.9777 107.4705 349° North  Level Estimated
08:41PM 26.0855 107.4474 349° North  Level Estimated
08:42PM 26.1932 107.4242 349° North  Level Estimated
08:43PM 26.3010 107.4010 349° North  Level Estimated
08:44PM 26.4087 107.3778 349° North  Level Estimated
08:45PM 26.5165 107.3545 349° North  Level Estimated
08:46PM 26.6242 107.3312 349° North  Level Estimated
08:47PM 26.7320 107.3079 349° North  Level Estimated
08:48PM 26.8397 107.2844 349° North  Level Estimated
08:49PM 26.9475 107.2610 349° North  Level Estimated
08:50PM 27.0552 107.2375 349° North  Level Estimated
08:51PM 27.1629 107.2140 349° North  Level Estimated
08:52PM 27.2706 107.1904 349° North  Level Estimated
08:53PM 27.3783 107.1667 349° North  Level Estimated
08:54PM 27.4861 107.1431 349° North  Level Estimated
08:55PM 27.5938 107.1193 349° North  Level Estimated
08:56PM 27.7015 107.0956 349° North  Level Estimated
08:57PM 27.8092 107.0717 349° North  Level Estimated
08:58PM 27.9169 107.0479 349° North  Level Estimated
08:59PM 28.0246 107.0239 349° North  Level Estimated
09:00PM 28.1323 107.0000 349° North  Level Estimated
09:01PM 28.2400 106.9760 349° North  Level Estimated
09:02PM 28.3476 106.9519 349° North  Level Estimated
09:03PM 28.4553 106.9278 349° North  Level Estimated
09:04PM 28.5630 106.9037 349° North  Level Estimated
09:05PM 28.6707 106.8795 349° North  Level Estimated
09:06PM 28.7783 106.8552 349° North  Level Estimated
09:07PM 28.8860 106.8309 349° North  Level Estimated
09:08PM 28.9937 106.8066 349° North  Level Estimated
09:09PM 29.1013 106.7822 349° North  Level Estimated
09:10PM 29.2090 106.7577 349° North  Level Estimated
09:11PM 29.3166 106.7332 349° North  Level Estimated
09:12PM 29.4242 106.7086 349° North  Level Estimated
09:13PM 29.5319 106.6840 349° North  Level Estimated
09:14PM 29.6395 106.6593 349° North  Level Estimated
09:15PM 29.7471 106.6346 169° South  Level Estimated
09:16PM 29.6395 106.6594 349° North  Level Estimated
09:17PM 29.7471 106.6346 169° South  Level Estimated
09:18PM 29.6395 106.6594 349° North  Level Estimated
09:19PM 29.7471 106.6346 169° South  Level Estimated
09:20PM 29.6395 106.6594 349° North  Level Estimated
09:21PM 29.7471 106.6346 169° South  Level Estimated
09:22PM 29.6395 106.6594 349° North  Level Estimated
09:23PM 29.7471 106.6346 169° South  Level Estimated
09:24PM 29.6395 106.6594 349° North  Level Estimated
09:25PM 29.7471 106.6346 169° South  Level Estimated
09:26PM 29.6395 106.6594 349° North  Level Estimated
09:27PM 29.7471 106.6346 349° North  Level Estimated